Promitheas — SYIJ — position and weather

sailwx.info

Track history (hours):
 
Tides and Currents Weather Stations Pressure Air Temp Water Temp Dewpoint Dewpoint Depression Visibility Wind Speed Wind Dir Waves Ship Positions

Promitheas

Last reported at 2018-Feb-07 23:29 UTC. Time now 2018-Feb-17 23:06 UTC.
Position N 49°50' W 003°27'.
Warning: this ship's position is 9 days out of date.

Length 249 m; draft 14.3 m.

Type: Ship (hazmat cat A). MMSI: 240547000.

Date/timePositionNaut miles runAvg speedWind from/ knotsBaromVisibWave heightAir tempDewpointWater temp
2018-Feb-07 23:29N 49°50' W 003°27'611.9
2018-Feb-07 22:59N 49°52' W 003°18'612.0
2018-Feb-07 22:30N 49°54' W 003°10'612.3
2018-Feb-07 22:00N 49°57' W 003°01'1212.9
2018-Feb-07 21:05N 50°01' W 002°44'16213.3
2018-Feb-07 08:53N 50°54' E 001°17'613.8
2018-Feb-07 08:27N 50°58' E 001°23'613.5
2018-Feb-07 07:59N 51°03' E 001°30'1212.4
2018-Feb-07 07:00N 51°11' E 001°44'1211.8
2018-Feb-07 06:00N 51°21' E 001°53'611.8
2018-Feb-07 05:31N 51°26' E 001°59'612.1
2018-Feb-07 05:00N 51°31' E 002°05'712.5
2018-Feb-07 04:29N 51°36' E 002°11'612.7
2018-Feb-07 04:00N 51°41' E 002°18'5812.7
2018-Feb-06 23:28N 52°04' E 003°43'613.5
2018-Feb-06 23:00N 52°05' E 003°53'612.9
2018-Feb-06 22:30N 52°07' E 004°03'611.8
2018-Feb-06 22:00N 52°10' E 004°11'2 4.4
2018-Feb-06 21:30N 52°12' E 004°14'0 0.1
2018-Feb-06 21:00N 52°12' E 004°14'0 0.0
2018-Feb-06 20:30N 52°12' E 004°14'0 0.0
2018-Feb-06 20:00N 52°12' E 004°14'0 0.0
2018-Feb-06 19:30N 52°12' E 004°14'0 0.0
2018-Feb-06 19:00N 52°12' E 004°14'0 0.0
2018-Feb-06 18:30N 52°12' E 004°14'0 0.0
2018-Feb-06 18:00N 52°12' E 004°14'0 0.4
2018-Feb-06 17:30N 52°12' E 004°14'0 0.6
2018-Feb-06 17:00N 52°11' E 004°14'0 0.1
2018-Feb-06 16:30N 52°11' E 004°14'0 0.0
2018-Feb-06 16:00N 52°11' E 004°14'0 0.0
2018-Feb-06 15:30N 52°11' E 004°14'0 0.0
2018-Feb-06 15:00N 52°11' E 004°14'0 0.0
2018-Feb-06 14:30N 52°11' E 004°14'0 0.0
2018-Feb-06 14:00N 52°11' E 004°14'0 0.0
2018-Feb-06 13:30N 52°11' E 004°14'0 0.3
2018-Feb-06 13:00N 52°12' E 004°14'2 3.6
2018-Feb-06 12:30N 52°11' E 004°11'5 9.4
2018-Feb-06 12:00N 52°11' E 004°03'4 7.5
2018-Feb-06 11:30N 52°11' E 003°57'39310.9
2018-Feb-04 23:35N 57°51' E 009°42'313.3
2018-Feb-04 23:20N 57°51' E 009°48'513.3
2018-Feb-04 23:00N 57°51' E 009°57'713.6
2018-Feb-04 22:27N 57°51' E 010°11'613.7
2018-Feb-04 22:00N 57°51' E 010°22'713.6
2018-Feb-04 21:30N 57°51' E 010°35'612.3
2018-Feb-04 21:00N 57°48' E 010°45'1212.2
2018-Feb-04 20:00N 57°40' E 011°02'713.3
2018-Feb-04 19:30N 57°35' E 011°11'713.3
2018-Feb-04 19:00N 57°31' E 011°20'612.6
2018-Feb-04 18:30N 57°25' E 011°27'713.3
2018-Feb-04 18:00N 57°19' E 011°31'713.2
2018-Feb-04 17:27N 57°12' E 011°36'12011.2
2018-Feb-04 06:42N 55°13' E 011°06'311.5
2018-Feb-04 06:25N 55°11' E 011°03'511.2
2018-Feb-04 06:01N 55°07' E 010°59'612.0
2018-Feb-04 05:30N 55°01' E 010°59'611.4
2018-Feb-04 05:00N 54°56' E 010°53'612.0
2018-Feb-04 04:30N 54°50' E 010°50'611.8
2018-Feb-04 04:00N 54°45' E 010°47'510.5
2018-Feb-04 03:30N 54°40' E 010°50'613.0
2018-Feb-04 03:00N 54°36' E 010°59'612.8
2018-Feb-04 02:30N 54°37' E 011°11'612.5
2018-Feb-04 02:00N 54°34' E 011°20'713.5
2018-Feb-04 01:30N 54°31' E 011°30'713.2
2018-Feb-04 01:00N 54°28' E 011°41'712.9
2018-Feb-04 00:29N 54°26' E 011°52'613.2
2018-Feb-03 23:59N 54°27' E 012°03'8610.3
2018-Feb-03 15:39N 55°10' E 014°13'213.2
2018-Feb-03 15:28N 55°12' E 014°15'613.3
2018-Feb-03 14:59N 55°17' E 014°22'713.2
2018-Feb-03 14:28N 55°22' E 014°30'912.9
2018-Feb-03 13:44N 55°28' E 014°43'313.1
2018-Feb-03 13:30N 55°30' E 014°47'712.9
2018-Feb-03 12:59N 55°33' E 014°58'912.9
2018-Feb-03 12:15N 55°37' E 015°13'412.8
2018-Feb-03 11:56N 55°38' E 015°20'513.0
2018-Feb-03 11:30N 55°39' E 015°30'613.0
2018-Feb-03 11:00N 55°41' E 015°41'713.1
2018-Feb-03 10:30N 55°43' E 015°52'613.0
2018-Feb-03 10:00N 55°44' E 016°03'612.9
2018-Feb-03 09:30N 55°46' E 016°14'713.0
2018-Feb-03 09:00N 55°48' E 016°25'713.0
2018-Feb-03 08:30N 55°49' E 016°37'30312.1
2018-Feb-02 07:32N 59°34' E 022°59'012.6
2018-Feb-02 07:30N 59°34' E 022°60'712.7
2018-Feb-02 06:58N 59°36' E 023°13'612.8
2018-Feb-02 06:30N 59°37' E 023°24'612.8
2018-Feb-02 06:00N 59°39' E 023°36'612.7
2018-Feb-02 05:30N 59°41' E 023°48'612.8
2018-Feb-02 05:00N 59°43' E 023°60'1312.8
2018-Feb-02 03:59N 59°47' E 024°25'712.8
2018-Feb-02 03:29N 59°48' E 024°38'810.1
2018-Feb-02 02:41N 59°42' E 024°49'213.0
2018-Feb-02 02:30N 59°40' E 024°49'5 9.7
2018-Feb-02 02:00N 59°35' E 024°51'0 0.9
2018-Feb-02 01:30N 59°35' E 024°50'0 0.1
2018-Feb-02 01:00N 59°35' E 024°50'0 0.0
2018-Feb-02 00:30N 59°35' E 024°50'0 0.1
2018-Feb-02 00:00N 59°35' E 024°50'0 0.0
2018-Feb-01 23:30N 59°35' E 024°50'0 0.0
2018-Feb-01 23:00N 59°35' E 024°50'0 0.1
2018-Feb-01 22:00N 59°35' E 024°50'0 0.0
2018-Feb-01 21:30N 59°35' E 024°50'0 0.0
2018-Feb-01 19:30N 59°35' E 024°50'0 0.0
2018-Feb-01 19:00N 59°35' E 024°50'0 0.0
2018-Feb-01 18:30N 59°35' E 024°50'0 0.0
2018-Feb-01 18:00N 59°35' E 024°50'0 0.1
2018-Feb-01 17:27N 59°35' E 024°50'0 0.1
2018-Feb-01 16:57N 59°35' E 024°50'0 0.1
2018-Feb-01 16:30N 59°35' E 024°50'0 0.2
2018-Feb-01 16:00N 59°35' E 024°50'0 0.2
2018-Feb-01 15:30N 59°35' E 024°50'0 0.2
2018-Feb-01 15:00N 59°35' E 024°50'0 0.1
2018-Feb-01 13:30N 59°35' E 024°50'0 0.1
2018-Feb-01 13:00N 59°35' E 024°50'0 0.0
2018-Feb-01 12:30N 59°35' E 024°50'0 0.1
2018-Feb-01 12:00N 59°35' E 024°50'0 0.0
2018-Feb-01 11:00N 59°35' E 024°50'0 0.0
2018-Feb-01 10:30N 59°35' E 024°50'0 0.0
2018-Feb-01 10:00N 59°35' E 024°50'0 0.0
2018-Feb-01 09:30N 59°35' E 024°50'0 0.0
2018-Feb-01 09:00N 59°35' E 024°50'0 0.0
2018-Feb-01 08:30N 59°35' E 024°50'0 0.0
2018-Feb-01 07:30N 59°35' E 024°50'0 0.0
2018-Feb-01 07:00N 59°35' E 024°50'0 0.0
2018-Feb-01 06:30N 59°35' E 024°50'0 0.0
2018-Feb-01 06:00N 59°35' E 024°50'0 0.7
2018-Feb-01 05:30N 59°35' E 024°50'2 5.0
2018-Feb-01 05:00N 59°38' E 024°49'3 5.7
2018-Feb-01 04:30N 59°40' E 024°48'611.6
2018-Feb-01 04:00N 59°46' E 024°51'1111.3
2018-Feb-01 03:00N 59°52' E 025°10'712.9
2018-Feb-01 02:30N 59°53' E 025°23'713.0
2018-Feb-01 01:59N 59°54' E 025°36'1813.0
2018-Feb-01 00:34N 59°58' E 026°12'115.5
2018-Feb-01 00:30N 59°59' E 026°14'612.3
2018-Feb-01 00:00N 60°00' E 026°26'1212.5
2018-Jan-31 23:00N 60°00' E 026°51'612.8
2018-Jan-31 22:30N 59°59' E 027°03'1912.6
2018-Jan-31 21:00N 60°09' E 027°36'612.4
2018-Jan-31 20:30N 60°12' E 027°47'713.1
2018-Jan-31 20:00N 60°10' E 027°60'612.3
2018-Jan-31 19:30N 60°09' E 028°12'5 9.4
2018-Jan-31 19:00N 60°07' E 028°20'4 9.0
2018-Jan-31 18:30N 60°08' E 028°29'4 7.8
2018-Jan-31 18:00N 60°09' E 028°36'4 8.2
2018-Jan-31 17:30N 60°11' E 028°44'1 2.4
2018-Jan-31 17:00N 60°12' E 028°45'4 8.0
2018-Jan-31 16:31N 60°16' E 028°47'4 8.2
2018-Jan-31 16:00N 60°19' E 028°42'1 0.2
2018-Jan-31 10:06N 60°20' E 028°42'0 0.0
2018-Jan-31 09:59N 60°20' E 028°42'0 0.0
2018-Jan-31 09:29N 60°20' E 028°42'0 0.0
2018-Jan-31 09:00N 60°20' E 028°42'0 0.0
2018-Jan-31 08:30N 60°20' E 028°42'0 0.0
2018-Jan-31 08:00N 60°20' E 028°42'0 0.0
2018-Jan-31 07:29N 60°20' E 028°42'0 0.0
2018-Jan-31 06:59N 60°20' E 028°42'0 0.0
2018-Jan-31 06:30N 60°20' E 028°42'0 0.0
2018-Jan-31 06:00N 60°20' E 028°42'0 0.0
2018-Jan-31 05:30N 60°20' E 028°42'0 0.0
2018-Jan-31 05:00N 60°20' E 028°42'0 0.0
2018-Jan-31 04:28N 60°20' E 028°42'0 0.0
2018-Jan-31 04:00N 60°20' E 028°42'0 0.0
2018-Jan-31 03:29N 60°20' E 028°42'0 0.0
2018-Jan-31 03:00N 60°20' E 028°42'0 0.0
2018-Jan-31 02:30N 60°20' E 028°42'0 0.0
2018-Jan-31 02:00N 60°20' E 028°42'0 0.0
2018-Jan-31 01:30N 60°20' E 028°42'0 0.0
2018-Jan-31 01:00N 60°20' E 028°42'0 0.0
2018-Jan-30 23:59N 60°20' E 028°42'0 0.0
2018-Jan-30 23:30N 60°20' E 028°42'0 0.0
2018-Jan-30 23:00N 60°20' E 028°42'0 0.0
2018-Jan-30 22:30N 60°20' E 028°42'0 0.0
2018-Jan-30 21:28N 60°20' E 028°42'0 0.0
2018-Jan-30 21:00N 60°20' E 028°42'0 0.0
2018-Jan-30 20:30N 60°20' E 028°42'0 0.0
2018-Jan-30 20:00N 60°20' E 028°42'0 0.0
2018-Jan-30 19:30N 60°20' E 028°42'0 0.0
2018-Jan-30 19:00N 60°20' E 028°42'0 0.0
2018-Jan-30 18:30N 60°20' E 028°42'0 0.0
2018-Jan-30 17:59N 60°20' E 028°42'0 0.0
2018-Jan-30 17:30N 60°20' E 028°42'0 0.0
2018-Jan-30 17:00N 60°20' E 028°42'0 0.0
2018-Jan-30 16:30N 60°20' E 028°42'0 0.0
2018-Jan-30 16:00N 60°20' E 028°42'0 0.0
2018-Jan-30 15:30N 60°20' E 028°42'0 0.0
2018-Jan-30 15:00N 60°20' E 028°42'0 0.0
2018-Jan-30 14:28N 60°20' E 028°42'0 0.0
2018-Jan-30 13:30N 60°20' E 028°42'0 0.0
2018-Jan-30 13:00N 60°20' E 028°42'0 0.0
2018-Jan-30 12:30N 60°20' E 028°42'0 0.0
2018-Jan-30 12:00N 60°20' E 028°42'0 0.6
2018-Jan-30 11:30N 60°20' E 028°41'5 4.8
2018-Jan-30 10:31N 60°16' E 028°47'5 4.9
2018-Jan-30 09:30N 60°11' E 028°44'1 1.5
2018-Jan-30 09:00N 60°11' E 028°44'2 4.5
2018-Jan-30 08:30N 60°10' E 028°40'510.2
2018-Jan-30 08:00N 60°07' E 028°31'3 6.9
2018-Jan-30 07:31N 60°04' E 028°27'3 6.5
2018-Jan-30 07:01N 60°02' E 028°31'2 3.2
2018-Jan-30 06:29N 60°01' E 028°27'0 0.2
2018-Jan-30 05:59N 60°01' E 028°27'0 0.0
2018-Jan-30 05:29N 60°01' E 028°27'0 0.2
2018-Jan-30 04:59N 60°01' E 028°27'0 0.1
2018-Jan-30 04:29N 60°01' E 028°27'0 0.1
2018-Jan-30 03:59N 60°01' E 028°27'0 0.1
2018-Jan-30 03:29N 60°01' E 028°27'0 0.0
2018-Jan-30 02:59N 60°01' E 028°27'0 0.0
2018-Jan-30 02:29N 60°01' E 028°27'0 0.0
2018-Jan-30 01:59N 60°01' E 028°27'0 0.0
2018-Jan-30 01:26N 60°01' E 028°27'0 0.0
2018-Jan-30 00:59N 60°01' E 028°27'0 0.0
2018-Jan-30 00:29N 60°01' E 028°27'0 0.0
2018-Jan-29 23:59N 60°01' E 028°27'0 0.0
2018-Jan-29 23:29N 60°01' E 028°27'0 0.0
2018-Jan-29 22:59N 60°01' E 028°27'0 0.0
2018-Jan-29 22:26N 60°01' E 028°27'0 0.0
2018-Jan-29 21:56N 60°01' E 028°27'0 0.0
2018-Jan-29 21:29N 60°01' E 028°27'0 0.0
2018-Jan-29 20:59N 60°01' E 028°27'0 0.0
2018-Jan-29 20:23N 60°01' E 028°27'0 0.0
2018-Jan-29 19:59N 60°01' E 028°27'0 0.0
2018-Jan-29 19:23N 60°01' E 028°27'0 0.0
2018-Jan-29 18:59N 60°01' E 028°27'0 0.0
2018-Jan-29 18:29N 60°01' E 028°27'0 0.0
2018-Jan-29 17:59N 60°01' E 028°27'0 0.0
2018-Jan-29 17:26N 60°01' E 028°27'0 0.0
2018-Jan-29 16:53N 60°01' E 028°27'0 0.0
2018-Jan-29 16:26N 60°01' E 028°27'0 0.0
2018-Jan-29 15:59N 60°01' E 028°27'0 0.0
2018-Jan-29 15:29N 60°01' E 028°27'0 0.0
2018-Jan-29 14:59N 60°01' E 028°27'0 0.0
2018-Jan-29 14:29N 60°01' E 028°27'0 0.0
2018-Jan-29 13:59N 60°01' E 028°27'0 0.0
2018-Jan-29 13:29N 60°01' E 028°27'0 0.0
2018-Jan-29 12:59N 60°01' E 028°27'0 0.0
2018-Jan-29 12:28N 60°01' E 028°27'0 0.0
2018-Jan-29 11:58N 60°01' E 028°27'0 0.0
2018-Jan-29 11:29N 60°01' E 028°27'0 0.0
2018-Jan-29 11:00N 60°01' E 028°27'0 0.0
2018-Jan-29 10:30N 60°01' E 028°27'0 0.0
2018-Jan-29 10:00N 60°01' E 028°27'0 0.0
2018-Jan-29 09:30N 60°01' E 028°27'0 0.0
2018-Jan-29 09:01N 60°01' E 028°27'0 0.0
2018-Jan-29 08:31N 60°01' E 028°27'0 0.0
2018-Jan-29 08:01N 60°01' E 028°27'0 0.2
2018-Jan-29 07:30N 60°01' E 028°27'1 3.0
2018-Jan-29 07:01N 60°03' E 028°27'611.7
2018-Jan-29 06:31N 60°06' E 028°18'713.2
2018-Jan-29 06:01N 60°09' E 028°05'713.5
2018-Jan-29 05:31N 60°10' E 027°52'612.8
2018-Jan-29 05:00N 60°09' E 027°40'714.1
2018-Jan-29 04:31N 60°05' E 027°28'714.2
2018-Jan-29 04:01N 60°02' E 027°16'713.8
2018-Jan-29 03:30N 59°58' E 027°03'714.0
2018-Jan-29 03:00N 59°59' E 026°50'714.0
2018-Jan-29 02:31N 59°59' E 026°36'714.2
2018-Jan-29 02:01N 59°58' E 026°22'2311.9
2018-Jan-29 00:07N 59°51' E 025°39'213.2
2018-Jan-28 23:57N 59°51' E 025°35'  
Track history (hours):
 
Tides and Currents Weather Stations Pressure Air Temp Water Temp Dewpoint Dewpoint Depression Visibility Wind Speed Wind Dir Waves Ship Positions

Promitheas

Last reported at 2018-Feb-07 23:29 UTC. Time now 2018-Feb-17 23:06 UTC.
Position N 49°50' W 003°27'.
Warning: this ship's position is 9 days out of date.

Length 249 m; draft 14.3 m.

Type: Ship (hazmat cat A). MMSI: 240547000.

Date/timePositionNaut miles runAvg speedWind from/ knotsBaromVisibWave heightAir tempDewpointWater temp
2018-Feb-07 23:29N 49°50' W 003°27'611.9
2018-Feb-07 22:59N 49°52' W 003°18'612.0
2018-Feb-07 22:30N 49°54' W 003°10'612.3
2018-Feb-07 22:00N 49°57' W 003°01'1212.9
2018-Feb-07 21:05N 50°01' W 002°44'16213.3
2018-Feb-07 08:53N 50°54' E 001°17'613.8
2018-Feb-07 08:27N 50°58' E 001°23'613.5
2018-Feb-07 07:59N 51°03' E 001°30'1212.4
2018-Feb-07 07:00N 51°11' E 001°44'1211.8
2018-Feb-07 06:00N 51°21' E 001°53'611.8
2018-Feb-07 05:31N 51°26' E 001°59'612.1
2018-Feb-07 05:00N 51°31' E 002°05'712.5
2018-Feb-07 04:29N 51°36' E 002°11'612.7
2018-Feb-07 04:00N 51°41' E 002°18'5812.7
2018-Feb-06 23:28N 52°04' E 003°43'613.5
2018-Feb-06 23:00N 52°05' E 003°53'612.9
2018-Feb-06 22:30N 52°07' E 004°03'611.8
2018-Feb-06 22:00N 52°10' E 004°11'2 4.4
2018-Feb-06 21:30N 52°12' E 004°14'0 0.1
2018-Feb-06 21:00N 52°12' E 004°14'0 0.0
2018-Feb-06 20:30N 52°12' E 004°14'0 0.0
2018-Feb-06 20:00N 52°12' E 004°14'0 0.0
2018-Feb-06 19:30N 52°12' E 004°14'0 0.0
2018-Feb-06 19:00N 52°12' E 004°14'0 0.0
2018-Feb-06 18:30N 52°12' E 004°14'0 0.0
2018-Feb-06 18:00N 52°12' E 004°14'0 0.4
2018-Feb-06 17:30N 52°12' E 004°14'0 0.6
2018-Feb-06 17:00N 52°11' E 004°14'0 0.1
2018-Feb-06 16:30N 52°11' E 004°14'0 0.0
2018-Feb-06 16:00N 52°11' E 004°14'0 0.0
2018-Feb-06 15:30N 52°11' E 004°14'0 0.0
2018-Feb-06 15:00N 52°11' E 004°14'0 0.0
2018-Feb-06 14:30N 52°11' E 004°14'0 0.0
2018-Feb-06 14:00N 52°11' E 004°14'0 0.0
2018-Feb-06 13:30N 52°11' E 004°14'0 0.3
2018-Feb-06 13:00N 52°12' E 004°14'2 3.6
2018-Feb-06 12:30N 52°11' E 004°11'5 9.4
2018-Feb-06 12:00N 52°11' E 004°03'4 7.5
2018-Feb-06 11:30N 52°11' E 003°57'39310.9
2018-Feb-04 23:35N 57°51' E 009°42'313.3
2018-Feb-04 23:20N 57°51' E 009°48'513.3
2018-Feb-04 23:00N 57°51' E 009°57'713.6
2018-Feb-04 22:27N 57°51' E 010°11'613.7
2018-Feb-04 22:00N 57°51' E 010°22'713.6
2018-Feb-04 21:30N 57°51' E 010°35'612.3
2018-Feb-04 21:00N 57°48' E 010°45'1212.2
2018-Feb-04 20:00N 57°40' E 011°02'713.3
2018-Feb-04 19:30N 57°35' E 011°11'713.3
2018-Feb-04 19:00N 57°31' E 011°20'612.6
2018-Feb-04 18:30N 57°25' E 011°27'713.3
2018-Feb-04 18:00N 57°19' E 011°31'713.2
2018-Feb-04 17:27N 57°12' E 011°36'12011.2
2018-Feb-04 06:42N 55°13' E 011°06'311.5
2018-Feb-04 06:25N 55°11' E 011°03'511.2
2018-Feb-04 06:01N 55°07' E 010°59'612.0
2018-Feb-04 05:30N 55°01' E 010°59'611.4
2018-Feb-04 05:00N 54°56' E 010°53'612.0
2018-Feb-04 04:30N 54°50' E 010°50'611.8
2018-Feb-04 04:00N 54°45' E 010°47'510.5
2018-Feb-04 03:30N 54°40' E 010°50'613.0
2018-Feb-04 03:00N 54°36' E 010°59'612.8
2018-Feb-04 02:30N 54°37' E 011°11'612.5
2018-Feb-04 02:00N 54°34' E 011°20'713.5
2018-Feb-04 01:30N 54°31' E 011°30'713.2
2018-Feb-04 01:00N 54°28' E 011°41'712.9
2018-Feb-04 00:29N 54°26' E 011°52'613.2
2018-Feb-03 23:59N 54°27' E 012°03'8610.3
2018-Feb-03 15:39N 55°10' E 014°13'213.2
2018-Feb-03 15:28N 55°12' E 014°15'613.3
2018-Feb-03 14:59N 55°17' E 014°22'713.2
2018-Feb-03 14:28N 55°22' E 014°30'912.9
2018-Feb-03 13:44N 55°28' E 014°43'313.1
2018-Feb-03 13:30N 55°30' E 014°47'712.9
2018-Feb-03 12:59N 55°33' E 014°58'912.9
2018-Feb-03 12:15N 55°37' E 015°13'412.8
2018-Feb-03 11:56N 55°38' E 015°20'513.0
2018-Feb-03 11:30N 55°39' E 015°30'613.0
2018-Feb-03 11:00N 55°41' E 015°41'713.1
2018-Feb-03 10:30N 55°43' E 015°52'613.0
2018-Feb-03 10:00N 55°44' E 016°03'612.9
2018-Feb-03 09:30N 55°46' E 016°14'713.0
2018-Feb-03 09:00N 55°48' E 016°25'713.0
2018-Feb-03 08:30N 55°49' E 016°37'30312.1
2018-Feb-02 07:32N 59°34' E 022°59'012.6
2018-Feb-02 07:30N 59°34' E 022°60'712.7
2018-Feb-02 06:58N 59°36' E 023°13'612.8
2018-Feb-02 06:30N 59°37' E 023°24'612.8
2018-Feb-02 06:00N 59°39' E 023°36'612.7
2018-Feb-02 05:30N 59°41' E 023°48'612.8
2018-Feb-02 05:00N 59°43' E 023°60'1312.8
2018-Feb-02 03:59N 59°47' E 024°25'712.8
2018-Feb-02 03:29N 59°48' E 024°38'810.1
2018-Feb-02 02:41N 59°42' E 024°49'213.0
2018-Feb-02 02:30N 59°40' E 024°49'5 9.7
2018-Feb-02 02:00N 59°35' E 024°51'0 0.9
2018-Feb-02 01:30N 59°35' E 024°50'0 0.1
2018-Feb-02 01:00N 59°35' E 024°50'0 0.0
2018-Feb-02 00:30N 59°35' E 024°50'0 0.1
2018-Feb-02 00:00N 59°35' E 024°50'0 0.0
2018-Feb-01 23:30N 59°35' E 024°50'0 0.0
2018-Feb-01 23:00N 59°35' E 024°50'0 0.1
2018-Feb-01 22:00N 59°35' E 024°50'0 0.0
2018-Feb-01 21:30N 59°35' E 024°50'0 0.0
2018-Feb-01 19:30N 59°35' E 024°50'0 0.0
2018-Feb-01 19:00N 59°35' E 024°50'0 0.0
2018-Feb-01 18:30N 59°35' E 024°50'0 0.0
2018-Feb-01 18:00N 59°35' E 024°50'0 0.1
2018-Feb-01 17:27N 59°35' E 024°50'0 0.1
2018-Feb-01 16:57N 59°35' E 024°50'0 0.1
2018-Feb-01 16:30N 59°35' E 024°50'0 0.2
2018-Feb-01 16:00N 59°35' E 024°50'0 0.2
2018-Feb-01 15:30N 59°35' E 024°50'0 0.2
2018-Feb-01 15:00N 59°35' E 024°50'0 0.1
2018-Feb-01 13:30N 59°35' E 024°50'0 0.1
2018-Feb-01 13:00N 59°35' E 024°50'0 0.0
2018-Feb-01 12:30N 59°35' E 024°50'0 0.1
2018-Feb-01 12:00N 59°35' E 024°50'0 0.0
2018-Feb-01 11:00N 59°35' E 024°50'0 0.0
2018-Feb-01 10:30N 59°35' E 024°50'0 0.0
2018-Feb-01 10:00N 59°35' E 024°50'0 0.0
2018-Feb-01 09:30N 59°35' E 024°50'0 0.0
2018-Feb-01 09:00N 59°35' E 024°50'0 0.0
2018-Feb-01 08:30N 59°35' E 024°50'0 0.0
2018-Feb-01 07:30N 59°35' E 024°50'0 0.0
2018-Feb-01 07:00N 59°35' E 024°50'0 0.0
2018-Feb-01 06:30N 59°35' E 024°50'0 0.0
2018-Feb-01 06:00N 59°35' E 024°50'0 0.7
2018-Feb-01 05:30N 59°35' E 024°50'2 5.0
2018-Feb-01 05:00N 59°38' E 024°49'3 5.7
2018-Feb-01 04:30N 59°40' E 024°48'611.6
2018-Feb-01 04:00N 59°46' E 024°51'1111.3
2018-Feb-01 03:00N 59°52' E 025°10'712.9
2018-Feb-01 02:30N 59°53' E 025°23'713.0
2018-Feb-01 01:59N 59°54' E 025°36'1813.0
2018-Feb-01 00:34N 59°58' E 026°12'115.5
2018-Feb-01 00:30N 59°59' E 026°14'612.3
2018-Feb-01 00:00N 60°00' E 026°26'1212.5
2018-Jan-31 23:00N 60°00' E 026°51'612.8
2018-Jan-31 22:30N 59°59' E 027°03'1912.6
2018-Jan-31 21:00N 60°09' E 027°36'612.4
2018-Jan-31 20:30N 60°12' E 027°47'713.1
2018-Jan-31 20:00N 60°10' E 027°60'612.3
2018-Jan-31 19:30N 60°09' E 028°12'5 9.4
2018-Jan-31 19:00N 60°07' E 028°20'4 9.0
2018-Jan-31 18:30N 60°08' E 028°29'4 7.8
2018-Jan-31 18:00N 60°09' E 028°36'4 8.2
2018-Jan-31 17:30N 60°11' E 028°44'1 2.4
2018-Jan-31 17:00N 60°12' E 028°45'4 8.0
2018-Jan-31 16:31N 60°16' E 028°47'4 8.2
2018-Jan-31 16:00N 60°19' E 028°42'1 0.2
2018-Jan-31 10:06N 60°20' E 028°42'0 0.0
2018-Jan-31 09:59N 60°20' E 028°42'0 0.0
2018-Jan-31 09:29N 60°20' E 028°42'0 0.0
2018-Jan-31 09:00N 60°20' E 028°42'0 0.0
2018-Jan-31 08:30N 60°20' E 028°42'0 0.0
2018-Jan-31 08:00N 60°20' E 028°42'0 0.0
2018-Jan-31 07:29N 60°20' E 028°42'0 0.0
2018-Jan-31 06:59N 60°20' E 028°42'0 0.0
2018-Jan-31 06:30N 60°20' E 028°42'0 0.0
2018-Jan-31 06:00N 60°20' E 028°42'0 0.0
2018-Jan-31 05:30N 60°20' E 028°42'0 0.0
2018-Jan-31 05:00N 60°20' E 028°42'0 0.0
2018-Jan-31 04:28N 60°20' E 028°42'0 0.0
2018-Jan-31 04:00N 60°20' E 028°42'0 0.0
2018-Jan-31 03:29N 60°20' E 028°42'0 0.0
2018-Jan-31 03:00N 60°20' E 028°42'0 0.0
2018-Jan-31 02:30N 60°20' E 028°42'0 0.0
2018-Jan-31 02:00N 60°20' E 028°42'0 0.0
2018-Jan-31 01:30N 60°20' E 028°42'0 0.0
2018-Jan-31 01:00N 60°20' E 028°42'0 0.0
2018-Jan-30 23:59N 60°20' E 028°42'0 0.0
2018-Jan-30 23:30N 60°20' E 028°42'0 0.0
2018-Jan-30 23:00N 60°20' E 028°42'0 0.0
2018-Jan-30 22:30N 60°20' E 028°42'0 0.0
2018-Jan-30 21:28N 60°20' E 028°42'0 0.0
2018-Jan-30 21:00N 60°20' E 028°42'0 0.0
2018-Jan-30 20:30N 60°20' E 028°42'0 0.0
2018-Jan-30 20:00N 60°20' E 028°42'0 0.0
2018-Jan-30 19:30N 60°20' E 028°42'0 0.0
2018-Jan-30 19:00N 60°20' E 028°42'0 0.0
2018-Jan-30 18:30N 60°20' E 028°42'0 0.0
2018-Jan-30 17:59N 60°20' E 028°42'0 0.0
2018-Jan-30 17:30N 60°20' E 028°42'0 0.0
2018-Jan-30 17:00N 60°20' E 028°42'0 0.0
2018-Jan-30 16:30N 60°20' E 028°42'0 0.0
2018-Jan-30 16:00N 60°20' E 028°42'0 0.0
2018-Jan-30 15:30N 60°20' E 028°42'0 0.0
2018-Jan-30 15:00N 60°20' E 028°42'0 0.0
2018-Jan-30 14:28N 60°20' E 028°42'0 0.0
2018-Jan-30 13:30N 60°20' E 028°42'0 0.0
2018-Jan-30 13:00N 60°20' E 028°42'0 0.0
2018-Jan-30 12:30N 60°20' E 028°42'0 0.0
2018-Jan-30 12:00N 60°20' E 028°42'0 0.6
2018-Jan-30 11:30N 60°20' E 028°41'5 4.8
2018-Jan-30 10:31N 60°16' E 028°47'5 4.9
2018-Jan-30 09:30N 60°11' E 028°44'1 1.5
2018-Jan-30 09:00N 60°11' E 028°44'2 4.5
2018-Jan-30 08:30N 60°10' E 028°40'510.2
2018-Jan-30 08:00N 60°07' E 028°31'3 6.9
2018-Jan-30 07:31N 60°04' E 028°27'3 6.5
2018-Jan-30 07:01N 60°02' E 028°31'2 3.2
2018-Jan-30 06:29N 60°01' E 028°27'0 0.2
2018-Jan-30 05:59N 60°01' E 028°27'0 0.0
2018-Jan-30 05:29N 60°01' E 028°27'0 0.2
2018-Jan-30 04:59N 60°01' E 028°27'0 0.1
2018-Jan-30 04:29N 60°01' E 028°27'0 0.1
2018-Jan-30 03:59N 60°01' E 028°27'0 0.1
2018-Jan-30 03:29N 60°01' E 028°27'0 0.0
2018-Jan-30 02:59N 60°01' E 028°27'0 0.0
2018-Jan-30 02:29N 60°01' E 028°27'0 0.0
2018-Jan-30 01:59N 60°01' E 028°27'0 0.0
2018-Jan-30 01:26N 60°01' E 028°27'0 0.0
2018-Jan-30 00:59N 60°01' E 028°27'0 0.0
2018-Jan-30 00:29N 60°01' E 028°27'0 0.0
2018-Jan-29 23:59N 60°01' E 028°27'0 0.0
2018-Jan-29 23:29N 60°01' E 028°27'0 0.0
2018-Jan-29 22:59N 60°01' E 028°27'0 0.0
2018-Jan-29 22:26N 60°01' E 028°27'0 0.0
2018-Jan-29 21:56N 60°01' E 028°27'0 0.0
2018-Jan-29 21:29N 60°01' E 028°27'0 0.0
2018-Jan-29 20:59N 60°01' E 028°27'0 0.0
2018-Jan-29 20:23N 60°01' E 028°27'0 0.0
2018-Jan-29 19:59N 60°01' E 028°27'0 0.0
2018-Jan-29 19:23N 60°01' E 028°27'0 0.0
2018-Jan-29 18:59N 60°01' E 028°27'0 0.0
2018-Jan-29 18:29N 60°01' E 028°27'0 0.0
2018-Jan-29 17:59N 60°01' E 028°27'0 0.0
2018-Jan-29 17:26N 60°01' E 028°27'0 0.0
2018-Jan-29 16:53N 60°01' E 028°27'0 0.0
2018-Jan-29 16:26N 60°01' E 028°27'0 0.0
2018-Jan-29 15:59N 60°01' E 028°27'0 0.0
2018-Jan-29 15:29N 60°01' E 028°27'0 0.0
2018-Jan-29 14:59N 60°01' E 028°27'0 0.0
2018-Jan-29 14:29N 60°01' E 028°27'0 0.0
2018-Jan-29 13:59N 60°01' E 028°27'0 0.0
2018-Jan-29 13:29N 60°01' E 028°27'0 0.0
2018-Jan-29 12:59N 60°01' E 028°27'0 0.0
2018-Jan-29 12:28N 60°01' E 028°27'0 0.0
2018-Jan-29 11:58N 60°01' E 028°27'0 0.0
2018-Jan-29 11:29N 60°01' E 028°27'0 0.0
2018-Jan-29 11:00N 60°01' E 028°27'0 0.0
2018-Jan-29 10:30N 60°01' E 028°27'0 0.0
2018-Jan-29 10:00N 60°01' E 028°27'0 0.0
2018-Jan-29 09:30N 60°01' E 028°27'0 0.0
2018-Jan-29 09:01N 60°01' E 028°27'0 0.0
2018-Jan-29 08:31N 60°01' E 028°27'0 0.0
2018-Jan-29 08:01N 60°01' E 028°27'0 0.2
2018-Jan-29 07:30N 60°01' E 028°27'1 3.0
2018-Jan-29 07:01N 60°03' E 028°27'611.7
2018-Jan-29 06:31N 60°06' E 028°18'713.2
2018-Jan-29 06:01N 60°09' E 028°05'713.5
2018-Jan-29 05:31N 60°10' E 027°52'612.8
2018-Jan-29 05:00N 60°09' E 027°40'714.1
2018-Jan-29 04:31N 60°05' E 027°28'714.2
2018-Jan-29 04:01N 60°02' E 027°16'713.8
2018-Jan-29 03:30N 59°58' E 027°03'714.0
2018-Jan-29 03:00N 59°59' E 026°50'714.0
2018-Jan-29 02:31N 59°59' E 026°36'714.2
2018-Jan-29 02:01N 59°58' E 026°22'2311.9
2018-Jan-29 00:07N 59°51' E 025°39'213.2
2018-Jan-28 23:57N 59°51' E 025°35'  

Dump ship's entire track history